ADDS METAR Data INFO
IDs: Format: Raw Decoded Include TAF

Data at: 0158 UTC 17 Oct 2017

KCCU 170153Z AUTO 28009KT 10SM CLR 05/M28 A3064 RMK AO2
KCCU 170135Z AUTO 28009KT 10SM CLR 03/M26 A3064 RMK AO2
KCCU 170112Z AUTO 29010KT 10SM CLR 05/M32 A3064 RMK AO2
KCCU 170053Z AUTO 30011KT 10SM CLR 07/M32 A3064 RMK AO2
KCCU 170030Z AUTO 28012KT 10SM CLR 05/M30 A3064 RMK AO2
KCCU 170012Z AUTO 27009KT 10SM CLR 07/M32 A3064 RMK AO2
KCCU 162353Z AUTO 28014G19KT 10SM CLR 07/M37 A3064 RMK AO2
KCCU 162335Z AUTO 29012G22KT 10SM CLR 08/M40 A3064 RMK AO2
KCCU 162312Z AUTO 30018G24KT 10SM CLR 08/M37 A3063 RMK AO2
KCCU 162254Z AUTO 31016G23KT 10SM CLR 08/M36 A3063 RMK AO2
KCCU 162230Z AUTO 30015G27KT 10SM CLR 08/M34 A3063 RMK AO2
KCCU 162212Z AUTO 29014G25KT 10SM CLR 08/M36 A3063 RMK AO2
KCCU 162152Z AUTO 29014G26KT 10SM CLR 10/M35 A3063 RMK AO2
KCCU 162134Z AUTO 30019G24KT 10SM CLR 10/M35 A3062 RMK AO2
KCCU 162111Z AUTO 29015G25KT 10SM CLR 10/M32 A3062 RMK AO2
KCCU 162052Z AUTO 29015G25KT 10SM CLR 10/M33 A3062 RMK AO2
KCCU 162034Z AUTO 31018G25KT 10SM CLR 10/M32 A3062 RMK AO2
KCCU 162012Z AUTO 30013G22KT 10SM CLR 10/M32 A3063 RMK AO2
KCCU 161955Z AUTO 30010G21KT 270V010 10SM CLR 10/M28 A3064 RMK AO2
KCCU 161933Z AUTO 31013G22KT 10SM CLR 09/M31 A3064 RMK AO2
KCCU 161911Z AUTO 29015G20KT 10SM CLR 09/M29 A3066 RMK AO2
KCCU 161854Z AUTO 30010G18KT 10SM CLR 09/M29 A3067 RMK AO2
KCCU 161830Z AUTO 29007KT 10SM CLR 09/M28 A3068 RMK AO2
KCCU 161812Z AUTO 32012G18KT 10SM CLR 08/M30 A3068 RMK AO2
KCCU 161753Z AUTO 31009KT 10SM CLR 08/M29 A3069 RMK AO2
KCCU 161735Z AUTO 30007KT 10SM CLR 08/M30 A3069 RMK AO2
KCCU 161711Z AUTO 29007KT 10SM CLR 07/M28 A3069 RMK AO2
KCCU 161653Z AUTO 28004KT 10SM CLR 07/M26 A3069 RMK AO2 P0005
KCCU 161635Z AUTO 30008KT 10SM CLR 06/M26 A3069 RMK AO2 P0005
KCCU 161611Z AUTO 28010KT 3/4SM RA VV005 03/M16 A3069 RMK AO2 VIS 1/4V5 P0001
KCCU 161554Z AUTO 28010G17KT 1/4SM -SN VV002 04/M16 A3069 RMK AO2
KCCU 161524Z AUTO 28011KT 3/4SM -SN VV005 03/M19 A3069 RMK AO2
KCCU 161512Z AUTO 30004G17KT 1/4SM -SN VV002 03/M15 A3069 RMK AO2
KCCU 161454Z AUTO 29010KT 1/4SM -SN VV002 03/M26 A3068 RMK AO2
KCCU 161430Z AUTO 29013G19KT 1/4SM -SN VV002 04/M31 A3068 RMK AO2
KCCU 161412Z AUTO 29015KT M1/4SM -SN VV000 02/M17 A3067 RMK AO2
KCCU 161353Z AUTO 28013KT M1/4SM SN VV000 01/M17 A3067 RMK AO2
KCCU 161335Z AUTO 28016KT M1/4SM -SN VV000 01/M13 A3066 RMK AO2
KCCU 161312Z AUTO 28009KT 3/4SM -SN VV005 01/M17 A3066 RMK AO2
KCCU 161252Z AUTO 28015G19KT 1/4SM -SN VV002 02/M16 A3066 RMK AO2
KCCU 161235Z AUTO 28018KT 1/2SM -SN VV005 02/M22 A3066 RMK AO2
KCCU 161212Z AUTO 28016G22KT 1/4SM -SN VV002 01/M16 A3066 RMK AO2
KCCU 161152Z AUTO 28016KT 1/2SM -SN VV005 01/M18 A3066 RMK AO2
KCCU 161135Z AUTO 28012G20KT 1/4SM -SN VV002 01/M15 A3067 RMK AO2
KCCU 161112Z AUTO 28013KT 1/2SM -SN VV005 01/M18 A3066 RMK AO2
KCCU 161053Z AUTO 28014KT 1 1/2SM -SN VV007 02/M18 A3066 RMK AO2 VIS 1/2V5
KCCU 161029Z AUTO 28013G17KT 1SM -SN VV007 02/M20 A3067 RMK AO2 VIS 1/2V5
KCCU 161011Z AUTO 27011KT 1 1/4SM -SN VV007 02/M20 A3067 RMK AO2 VIS 1/2V5
KCCU 160953Z AUTO 27009G17KT 10SM CLR 03/M24 A3067 RMK AO2
KCCU 160935Z AUTO 26010G15KT 10SM CLR 03/M26 A3067 RMK AO2
KCCU 160912Z AUTO 25007KT 10SM CLR 03/M25 A3068 RMK AO2
KCCU 160851Z AUTO 24007KT 10SM CLR 03/M24 A3068 RMK AO2
KCCU 160835Z AUTO 26009KT 10SM CLR 03/M25 A3068 RMK AO2
KCCU 160812Z AUTO 24006KT 10SM CLR 03/M24 A3069 RMK AO2
KCCU 160753Z AUTO 26007KT 10SM CLR 03/M23 A3069 RMK AO2
KCCU 160735Z AUTO 22004G08KT 10SM CLR 03/M23 A3069 RMK AO2
KCCU 160712Z AUTO 26010G14KT 10SM CLR 03/M24 A3069 RMK AO2
KCCU 160655Z AUTO 25011G16KT 200V280 10SM CLR 03/M24 A3069 RMK AO2
KCCU 160633Z AUTO 26011G15KT 10SM CLR 03/M23 A3069 RMK AO2
KCCU 160611Z AUTO 27009KT 10SM CLR 03/M24 A3069 RMK AO2
KCCU 160418Z AUTO 28007KT 10SM CLR 02/M21 A3071 RMK AO2
KCCU 160412Z AUTO 27008KT 5SM HZ CLR 03/M21 A3071 RMK AO2
KCCU 160354Z AUTO 26009KT 10SM CLR 03/M21 A3071 RMK AO2
KCCU 160330Z AUTO 27011KT 10SM CLR 03/M20 A3070 RMK AO2
KCCU 160312Z AUTO 27009KT 1 3/4SM -SN VV007 03/M15 A3070 RMK AO2 VIS 3/4V5
KCCU 160254Z AUTO 27012G17KT 1 1/4SM -SN VV007 02/M16 A3070 RMK AO2 VIS 1/2V5
KCCU 160230Z AUTO 28015G21KT 1 1/2SM -SN VV007 03/M16 A3070 RMK AO2 VIS 1/2V5
KCCU 160212Z AUTO 28017KT 10SM CLR 03/M21 A3069 RMK AO2
KCCU 160153Z AUTO 27014KT 10SM CLR 03/M21 A3069 RMK AO2
KCCU 160135Z AUTO 29017G24KT 10SM CLR 03/M21 A3069 RMK AO2
KCCU 160112Z AUTO 28014G22KT 10SM CLR 03/M21 A3069 RMK AO2
KCCU 160054Z AUTO 28020KT 10SM CLR 04/M21 A3068 RMK AO2
KCCU 160030Z AUTO 28013G18KT 10SM CLR 04/M19 A3068 RMK AO2
KCCU 160012Z AUTO 29015G18KT 10SM CLR 05/M20 A3069 RMK AO2
KCCU 152354Z AUTO 30014G22KT 10SM CLR 06/M20 A3068 RMK AO2
KCCU 152330Z AUTO 30013G22KT 10SM CLR 07/M21 A3068 RMK AO2
KCCU 152312Z AUTO 29016G22KT 10SM CLR 07/M21 A3068 RMK AO2
KCCU 152251Z AUTO 30015KT 10SM CLR 07/M21 A3068 RMK AO2
KCCU 152234Z AUTO 10SM CLR 07/M20 A3068 RMK AO2
KCCU 152212Z AUTO 31016G23KT 10SM CLR 07/M20 A3068 RMK AO2
KCCU 152152Z AUTO 30014G21KT 10SM CLR 07/M19 A3068 RMK AO2
KCCU 152135Z AUTO 30012KT 10SM CLR 07/M20 A3069 RMK AO2
KCCU 152112Z AUTO 30012G23KT 10SM CLR 07/M19 A3068 RMK AO2
KCCU 152052Z AUTO 29013G24KT 10SM CLR 07/M20 A3069 RMK AO2
KCCU 152035Z AUTO 30005G14KT 10SM CLR 07/M17 A3069 RMK AO2
KCCU 152012Z AUTO 32009KT 10SM CLR 07/M17 A3069 RMK AO2
KCCU 151953Z AUTO 31011G15KT 10SM CLR 07/M17 A3069 RMK AO2
KCCU 151935Z AUTO 32006G17KT 270V020 10SM CLR 07/M16 A3069 RMK AO2
KCCU 151912Z AUTO 32008G16KT 10SM CLR 05/M17 A3069 RMK AO2
KCCU 151853Z AUTO 32013G21KT 10SM CLR 05/M16 A3070 RMK AO2
KCCU 151835Z AUTO 29006G16KT 10SM CLR 05/M16 A3071 RMK AO2
KCCU 151812Z AUTO 31010G15KT 10SM CLR 05/M16 A3071 RMK AO2
KCCU 151753Z AUTO 31006KT 10SM CLR 05/M16 A3071 RMK AO2
KCCU 151735Z AUTO 27009G18KT 10SM CLR 03/M17 A3070 RMK AO2
KCCU 151711Z AUTO 28011G17KT 10SM CLR 03/M17 A3070 RMK AO2
KCCU 151652Z AUTO 29012G18KT 10SM CLR 03/M17 A3069 RMK AO2
KCCU 151635Z AUTO 31009KT 10SM CLR 02/M19 A3069 RMK AO2
KCCU 151611Z AUTO 29013G18KT 10SM CLR 01/M18 A3069 RMK AO2
KCCU 151551Z AUTO 29009KT 10SM CLR 01/M18 A3068 RMK AO2
KCCU 151535Z AUTO 28013G18KT 10SM CLR 01/M17 A3068 RMK AO2
KCCU 151512Z AUTO 27016G20KT 10SM CLR 01/M17 A3067 RMK AO2
KCCU 151453Z AUTO 27015G19KT 10SM CLR 00/M17 A3066 RMK AO2
KCCU 151435Z AUTO 10SM CLR 00/M18 A3066 RMK AO2
KCCU 151412Z AUTO 28017KT 10SM CLR 00/M18 A3064 RMK AO2